createdAt,value
2018-07-17T04:10:01.687Z,18.93
2018-07-17T04:10:27.199Z,18.95
2018-07-17T04:11:15.489Z,18.89
2018-07-17T04:11:40.981Z,18.98
2018-07-17T04:12:06.493Z,19.07
2018-07-17T04:12:31.966Z,18.99
2018-07-17T04:12:57.469Z,18.92
2018-07-17T04:13:22.994Z,18.99
2018-07-17T04:13:48.458Z,18.93
2018-07-17T04:14:13.944Z,18.99
2018-07-17T04:14:39.441Z,19.04
2018-07-17T04:15:04.896Z,19
2018-07-17T04:15:30.457Z,19
2018-07-17T04:15:55.927Z,18.93
2018-07-17T04:16:21.402Z,19
2018-07-17T04:16:46.925Z,18.92
2018-07-17T04:17:12.998Z,18.96
2018-07-17T04:17:38.532Z,18.93
2018-07-17T04:18:04.033Z,19
2018-07-17T04:18:29.527Z,18.92
2018-07-17T04:18:55.031Z,18.99
2018-07-17T04:19:20.524Z,19.04
2018-07-17T04:19:46.006Z,19.07
2018-07-17T04:20:11.497Z,19.02
2018-07-17T04:20:37.044Z,18.98
2018-07-17T04:21:02.528Z,19.04
2018-07-17T04:21:28.009Z,18.99
2018-07-17T04:21:53.506Z,18.96
2018-07-17T04:22:19.033Z,19.07
2018-07-17T04:22:44.506Z,19.09
2018-07-17T04:23:10.022Z,19
2018-07-17T04:23:35.478Z,18.99
2018-07-17T04:24:00.993Z,19.04
2018-07-17T04:24:26.469Z,19.07
2018-07-17T04:24:52.022Z,19.09
2018-07-17T04:25:17.504Z,19.09
2018-07-17T04:25:43.004Z,19.02
2018-07-17T04:26:08.475Z,19.12
2018-07-17T04:26:33.951Z,19.02
2018-07-17T04:26:59.460Z,19.12
2018-07-17T04:27:24.999Z,19.07
2018-07-17T04:27:50.519Z,19.02
2018-07-17T04:28:16.039Z,19.15
2018-07-17T04:28:41.507Z,19.15
2018-07-17T04:29:06.989Z,19.15
2018-07-17T04:29:32.496Z,19.22
2018-07-17T04:29:57.965Z,19.21
2018-07-17T04:30:23.589Z,19.21
2018-07-17T04:30:49.032Z,19.11
2018-07-17T04:31:14.579Z,19.19
2018-07-17T04:31:40.065Z,19.14
2018-07-17T04:32:05.993Z,19.22
2018-07-17T04:32:31.453Z,19.22
2018-07-17T04:32:56.929Z,19.27
2018-07-17T04:33:22.419Z,19.29
2018-07-17T04:33:47.923Z,19.33
2018-07-17T04:34:13.386Z,19.36
2018-07-17T04:34:38.885Z,19.3
2018-07-17T04:35:04.365Z,19.4
2018-07-17T04:35:29.860Z,19.37
2018-07-17T04:35:55.353Z,19.44
2018-07-17T04:36:21.069Z,19.27
2018-07-17T04:36:46.549Z,19.41
2018-07-17T04:37:12.204Z,19.37
2018-07-17T04:37:37.599Z,19.39
2018-07-17T04:38:03.237Z,19.41
2018-07-17T04:38:28.840Z,19.49
2018-07-17T04:38:54.363Z,19.49
2018-07-17T04:39:19.873Z,19.55
2018-07-17T04:39:45.371Z,19.63
2018-07-17T04:40:10.980Z,19.62
2018-07-17T04:40:36.497Z,19.66
2018-07-17T04:41:02.014Z,19.67
2018-07-17T04:41:27.512Z,19.79
2018-07-17T04:41:52.995Z,19.82
2018-07-17T04:42:18.499Z,19.91
2018-07-17T04:42:43.963Z,19.99
2018-07-17T04:43:09.458Z,20.03
2018-07-17T04:43:34.986Z,20.14
2018-07-17T04:44:00.484Z,20.18
2018-07-17T04:44:25.959Z,20.26
2018-07-17T04:44:51.450Z,20.24
2018-07-17T04:45:16.937Z,20.39
2018-07-17T04:45:42.443Z,20.5
2018-07-17T04:46:07.958Z,20.59
2018-07-17T04:46:33.458Z,20.69
2018-07-17T04:46:58.941Z,20.7
2018-07-17T04:47:24.436Z,20.8
2018-07-17T04:47:49.931Z,20.92
2018-07-17T04:48:15.440Z,20.92
2018-07-17T04:48:40.935Z,20.97
2018-07-17T04:49:06.438Z,21.06
2018-07-17T04:49:31.930Z,21.17
2018-07-17T04:49:57.425Z,21.2
2018-07-17T04:50:22.915Z,21.24
2018-07-17T04:50:48.415Z,21.32
2018-07-17T04:51:13.923Z,21.25
2018-07-17T04:51:39.457Z,21.42
2018-07-17T04:52:27.289Z,21.37
2018-07-17T04:52:52.763Z,21.55
2018-07-17T04:53:18.244Z,21.62
2018-07-17T04:53:43.747Z,21.54
2018-07-17T04:54:09.217Z,21.62
2018-07-17T04:54:34.712Z,21.64
2018-07-17T04:55:00.193Z,21.73
2018-07-17T04:55:25.680Z,21.82
2018-07-17T04:55:51.165Z,21.77
2018-07-17T04:56:16.688Z,21.77
2018-07-17T04:56:42.163Z,21.8
2018-07-17T04:57:07.629Z,21.85
2018-07-17T04:57:33.117Z,21.91
2018-07-17T04:57:58.727Z,21.95
2018-07-17T04:58:24.238Z,21.92
2018-07-17T04:58:49.748Z,21.96
2018-07-17T04:59:15.228Z,21.98
2018-07-17T04:59:40.752Z,21.89
2018-07-17T05:00:06.280Z,21.92
2018-07-17T05:00:31.746Z,21.85
2018-07-17T05:00:57.226Z,21.8
2018-07-17T05:01:22.810Z,21.95
2018-07-17T05:01:48.373Z,21.95
2018-07-17T05:02:13.777Z,21.82
2018-07-17T05:02:39.271Z,21.88
2018-07-17T05:03:04.745Z,21.93
2018-07-17T05:03:30.250Z,21.98
2018-07-17T05:03:55.774Z,21.99
2018-07-17T05:04:21.280Z,21.98
2018-07-17T05:04:46.774Z,22
2018-07-17T05:05:12.280Z,21.95
2018-07-17T05:05:37.767Z,22.04
2018-07-17T05:06:03.254Z,22.02
2018-07-17T05:06:28.776Z,22.11
2018-07-17T05:06:54.260Z,22.07
2018-07-17T05:07:19.756Z,22.1
2018-07-17T05:07:45.272Z,22.07
2018-07-17T05:08:10.779Z,22.06
2018-07-17T05:08:36.280Z,22.14
2018-07-17T05:09:01.777Z,22.2
2018-07-17T05:09:27.288Z,22.18
2018-07-17T05:09:52.784Z,22.26
2018-07-17T05:10:18.282Z,22.18
2018-07-17T05:10:43.856Z,22.32
2018-07-17T05:11:09.323Z,22.3
2018-07-17T05:11:34.853Z,22.32
2018-07-17T05:12:00.324Z,22.38
2018-07-17T05:12:25.804Z,22.43
2018-07-17T05:12:51.322Z,22.47
2018-07-17T05:13:16.824Z,22.36
2018-07-17T05:13:42.336Z,22.41
2018-07-17T05:14:07.836Z,22.36
2018-07-17T05:14:33.335Z,22.44
2018-07-17T05:14:58.842Z,22.41
2018-07-17T05:15:24.379Z,22.48
2018-07-17T05:15:49.844Z,22.51
2018-07-17T05:16:15.631Z,22.51
2018-07-17T05:16:41.012Z,22.59
2018-07-17T05:17:06.591Z,22.53
2018-07-17T05:17:32.076Z,22.57
2018-07-17T05:17:57.673Z,22.57
2018-07-17T05:18:23.759Z,22.57
2018-07-17T05:18:49.171Z,22.57
2018-07-17T05:19:14.885Z,22.62
2018-07-17T05:19:40.429Z,22.53
2018-07-17T05:20:06.088Z,22.63
2018-07-17T05:20:31.804Z,22.59
2018-07-17T05:20:57.328Z,22.62
2018-07-17T05:21:22.911Z,22.63
2018-07-17T05:21:48.464Z,22.7
2018-07-17T05:22:14.287Z,22.69
2018-07-17T05:22:40.229Z,22.66
2018-07-17T05:23:05.737Z,22.75
2018-07-17T05:23:31.235Z,22.69
2018-07-17T05:23:56.791Z,22.73
2018-07-17T05:24:22.247Z,22.75
2018-07-17T05:24:47.733Z,22.75
2018-07-17T05:25:13.253Z,22.76
2018-07-17T05:25:38.816Z,22.83
2018-07-17T05:26:04.371Z,22.78
2018-07-17T05:26:29.878Z,22.73
2018-07-17T05:26:55.425Z,22.81
2018-07-17T05:27:20.957Z,22.76
2018-07-17T05:27:46.409Z,22.76
2018-07-17T05:28:11.909Z,22.81
2018-07-17T05:28:37.381Z,22.9
2018-07-17T05:29:03.382Z,22.84
2018-07-17T05:29:28.768Z,22.88
2018-07-17T05:29:54.824Z,22.85
2018-07-17T05:30:20.331Z,22.94
2018-07-17T05:30:45.800Z,22.99
2018-07-17T05:31:11.285Z,22.96
2018-07-17T05:31:36.810Z,22.99
2018-07-17T05:32:02.275Z,23.05
2018-07-17T05:32:55.703Z,23.02
2018-07-17T05:33:21.206Z,23.08
2018-07-17T05:33:46.724Z,23.12
2018-07-17T05:34:12.217Z,23.17
2018-07-17T05:34:37.719Z,23.13
2018-07-17T05:35:26.800Z,23.23
2018-07-17T05:35:52.396Z,23.1
2018-07-17T05:36:17.903Z,23.13
2018-07-17T05:36:43.378Z,23.24
2018-07-17T05:37:08.880Z,23.24
2018-07-17T05:37:34.363Z,23.21
2018-07-17T05:37:59.828Z,23.27
2018-07-17T05:38:25.323Z,23.23
2018-07-17T05:38:50.794Z,23.24
2018-07-17T05:39:16.315Z,23.27
2018-07-17T05:39:41.793Z,23.2
2018-07-17T05:40:07.286Z,23.39
2018-07-17T05:40:32.770Z,23.34
2018-07-17T05:40:58.276Z,23.37
2018-07-17T05:41:23.781Z,23.43
2018-07-17T05:41:49.581Z,23.41
2018-07-17T05:42:15.059Z,23.41
2018-07-17T05:42:40.546Z,23.48
2018-07-17T05:43:05.982Z,23.51
2018-07-17T05:43:31.462Z,23.51
2018-07-17T05:43:56.924Z,23.58
2018-07-17T05:44:22.388Z,23.62
2018-07-17T05:44:47.910Z,23.63
2018-07-17T05:45:13.433Z,23.68
2018-07-17T05:45:38.889Z,23.66
2018-07-17T05:46:04.404Z,23.65
2018-07-17T05:46:29.936Z,23.69
2018-07-17T05:46:55.448Z,23.76
2018-07-17T05:47:20.877Z,23.8
2018-07-17T05:47:46.513Z,23.74
2018-07-17T05:48:11.918Z,23.83
2018-07-17T05:48:37.526Z,23.81
2018-07-17T05:49:02.966Z,23.88
2018-07-17T05:49:28.392Z,23.93
2018-07-17T05:49:53.895Z,23.86
2018-07-17T05:50:19.434Z,23.96
2018-07-17T05:50:44.891Z,23.99
2018-07-17T05:51:10.375Z,23.98
2018-07-17T05:51:36.082Z,24.01
2018-07-17T05:52:01.652Z,24.02
2018-07-17T05:52:27.060Z,24.1
2018-07-17T05:52:52.744Z,24.11
2018-07-17T05:53:18.216Z,24.17
2018-07-17T05:53:43.730Z,24.18
2018-07-17T05:54:09.225Z,24.21
2018-07-17T05:54:34.663Z,24.29
2018-07-17T05:55:00.402Z,24.24
2018-07-17T05:55:25.937Z,24.29
2018-07-17T05:55:51.372Z,24.26
2018-07-17T05:56:16.883Z,24.3
2018-07-17T05:56:42.388Z,24.32
2018-07-17T05:57:07.957Z,24.39
2018-07-17T05:57:33.384Z,24.4
2018-07-17T05:57:58.835Z,24.48
2018-07-17T05:58:24.382Z,24.42
2018-07-17T05:58:49.794Z,24.51
2018-07-17T05:59:15.285Z,24.42
2018-07-17T05:59:40.798Z,24.48
2018-07-17T06:00:06.281Z,24.54
2018-07-17T06:00:31.770Z,24.54
2018-07-17T06:00:57.209Z,24.51
2018-07-17T06:01:22.774Z,24.53
2018-07-17T06:01:48.351Z,24.61
2018-07-17T06:02:13.795Z,24.63
2018-07-17T06:02:39.348Z,24.58
2018-07-17T06:03:04.786Z,24.63
2018-07-17T06:03:30.384Z,24.63
2018-07-17T06:03:55.940Z,24.69
2018-07-17T06:04:21.447Z,24.68
2018-07-17T06:04:46.952Z,24.68
2018-07-17T06:05:12.454Z,24.68
2018-07-17T06:05:38.095Z,24.74
2018-07-17T06:06:03.595Z,24.73
2018-07-17T06:06:29.113Z,24.74
2018-07-17T06:06:54.638Z,24.76
2018-07-17T06:07:20.169Z,24.7
2018-07-17T06:07:45.864Z,24.8
2018-07-17T06:08:11.366Z,24.7
2018-07-17T06:08:36.877Z,24.81
2018-07-17T06:09:02.387Z,24.78
2018-07-17T06:10:06.002Z,24.89
2018-07-17T06:10:31.502Z,24.89
2018-07-17T06:10:56.987Z,24.81
2018-07-17T06:11:22.503Z,24.88
2018-07-17T06:11:48.004Z,24.88
2018-07-17T06:12:13.481Z,24.8
2018-07-17T06:12:38.986Z,24.92
2018-07-17T06:13:04.491Z,24.96
2018-07-17T06:13:29.998Z,24.96
2018-07-17T06:14:28.539Z,25.01
2018-07-17T06:14:54.053Z,25.07
2018-07-17T06:15:19.530Z,25.06
2018-07-17T06:15:45.018Z,25.01
2018-07-17T06:16:10.521Z,25.06
2018-07-17T06:16:36.030Z,25.04
2018-07-17T06:17:01.521Z,25.01
2018-07-17T06:17:27.044Z,25.06
2018-07-17T06:17:52.569Z,25.06
2018-07-17T06:18:18.083Z,25.06
2018-07-17T06:18:43.559Z,25.06
2018-07-17T06:19:09.193Z,25.13
2018-07-17T06:19:34.561Z,25.1
2018-07-17T06:20:00.135Z,25.26
2018-07-17T06:20:25.542Z,25.18
2018-07-17T06:20:51.069Z,25.25
2018-07-17T06:21:16.547Z,25.31
2018-07-17T06:21:42.010Z,25.32
2018-07-17T06:22:07.561Z,25.4
2018-07-17T06:22:32.983Z,25.41
2018-07-17T06:22:58.484Z,25.33
2018-07-17T06:23:23.992Z,25.5
2018-07-17T06:23:49.493Z,25.5
2018-07-17T06:24:14.983Z,25.62
2018-07-17T06:24:40.473Z,25.65
2018-07-17T06:25:05.996Z,25.72
2018-07-17T06:25:31.429Z,25.75
2018-07-17T06:26:24.857Z,25.87
2018-07-17T06:26:50.386Z,25.95
2018-07-17T06:27:15.899Z,25.91
2018-07-17T06:27:41.408Z,26
2018-07-17T06:28:06.909Z,25.95
2018-07-17T06:28:32.423Z,26.05
2018-07-17T06:28:57.894Z,26.1
2018-07-17T06:29:23.392Z,25.98
2018-07-17T06:29:48.899Z,26.06
2018-07-17T06:30:14.480Z,26.15
2018-07-17T06:31:23.152Z,26.25
2018-07-17T06:31:48.630Z,26.29
2018-07-17T06:32:14.138Z,26.37
2018-07-17T06:32:39.654Z,26.36
2018-07-17T06:33:05.182Z,26.41
2018-07-17T06:33:30.655Z,26.43
2018-07-17T06:33:56.154Z,26.47
2018-07-17T06:34:21.653Z,26.51
2018-07-17T06:35:25.270Z,26.56
2018-07-17T06:35:50.775Z,26.59
2018-07-17T06:36:16.278Z,26.66
2018-07-17T06:37:14.829Z,26.63
2018-07-17T06:37:40.341Z,26.66
2018-07-17T06:38:05.843Z,26.68
2018-07-17T06:38:31.322Z,26.7
2018-07-17T06:38:56.828Z,26.83
2018-07-17T06:39:22.298Z,26.81
2018-07-17T06:40:20.816Z,26.89
2018-07-17T06:40:46.339Z,26.97
2018-07-17T06:41:11.852Z,26.96
2018-07-17T06:41:37.360Z,26.97
2018-07-17T06:42:02.852Z,26.96
2018-07-17T06:42:28.345Z,26.97
2018-07-17T06:42:53.836Z,27.07
2018-07-17T06:43:19.363Z,27.1
2018-07-17T06:43:44.837Z,27.07
2018-07-17T06:44:10.314Z,27.17
2018-07-17T06:44:35.801Z,27.21
2018-07-17T06:45:01.281Z,27.14
2018-07-17T06:45:26.789Z,27.22
2018-07-17T06:45:52.288Z,27.2
2018-07-17T06:46:17.809Z,27.22
2018-07-17T06:46:43.305Z,27.33
2018-07-17T06:47:08.816Z,27.29
2018-07-17T06:47:34.314Z,27.36
2018-07-17T06:47:59.806Z,27.37
2018-07-17T06:48:25.307Z,27.33
2018-07-17T06:49:28.924Z,27.45
2018-07-17T06:49:54.423Z,27.35
2018-07-17T06:50:19.948Z,27.4
2018-07-17T06:50:45.391Z,27.35
2018-07-17T06:51:10.899Z,27.48
2018-07-17T06:51:36.382Z,27.45
2018-07-17T06:52:01.930Z,27.49
2018-07-17T06:52:27.430Z,27.51
2018-07-17T06:52:52.917Z,27.44
2018-07-17T06:53:18.416Z,27.45
2018-07-17T06:53:43.895Z,27.42
2018-07-17T06:54:09.401Z,27.58
2018-07-17T06:54:34.881Z,27.51
2018-07-17T06:55:28.303Z,27.58
2018-07-17T06:55:53.802Z,27.59
2018-07-17T06:56:19.343Z,27.52
2018-07-17T06:56:44.818Z,27.64
2018-07-17T06:57:10.304Z,27.73
2018-07-17T06:57:35.807Z,27.6
2018-07-17T06:58:01.301Z,27.71
2018-07-17T06:58:26.786Z,27.74
2018-07-17T06:58:52.282Z,27.7
2018-07-17T06:59:17.833Z,27.75
2018-07-17T06:59:43.327Z,27.71
2018-07-17T07:00:08.828Z,27.77
2018-07-17T07:00:34.327Z,27.86
2018-07-17T07:00:59.820Z,27.86
2018-07-17T07:01:25.304Z,27.87
2018-07-17T07:01:50.820Z,27.85
2018-07-17T07:02:16.316Z,27.82
2018-07-17T07:02:41.832Z,27.74
2018-07-17T07:03:07.378Z,27.67
2018-07-17T07:03:32.800Z,27.7
2018-07-17T07:03:58.278Z,27.6
2018-07-17T07:04:23.783Z,27.59
2018-07-17T07:04:49.336Z,27.74
2018-07-17T07:05:14.845Z,27.67
2018-07-17T07:05:40.337Z,27.7
2018-07-17T07:06:05.810Z,27.78
2018-07-17T07:06:31.319Z,27.7
2018-07-17T07:06:56.807Z,27.67
2018-07-17T07:07:22.302Z,27.73
2018-07-17T07:07:47.824Z,27.75
2018-07-17T07:08:13.323Z,27.77
2018-07-17T07:08:38.835Z,27.78
2018-07-17T07:09:04.349Z,27.77
2018-07-17T07:09:29.854Z,27.87
2018-07-17T07:09:55.345Z,27.85
2018-07-17T07:10:20.850Z,27.87
2018-07-17T07:10:46.391Z,27.95
2018-07-17T07:11:11.900Z,27.85
2018-07-17T07:11:37.355Z,27.87
2018-07-17T07:12:02.854Z,27.9
2018-07-17T07:12:28.370Z,27.96
2018-07-17T07:12:53.856Z,27.9
2018-07-17T07:13:19.374Z,27.93
2018-07-17T07:13:44.897Z,27.87
2018-07-17T07:14:10.394Z,27.87
2018-07-17T07:14:35.915Z,27.9
2018-07-17T07:15:01.429Z,27.8
2018-07-17T07:15:26.944Z,27.77
2018-07-17T07:15:52.455Z,27.83
2018-07-17T07:16:17.954Z,27.82
2018-07-17T07:16:43.461Z,27.82
2018-07-17T07:17:08.968Z,27.87
2018-07-17T07:17:34.424Z,27.8
2018-07-17T07:17:59.932Z,28
2018-07-17T07:18:25.413Z,27.95
2018-07-17T07:18:50.914Z,27.96
2018-07-17T07:19:16.433Z,27.93
2018-07-17T07:19:41.935Z,28.05
2018-07-17T07:20:07.414Z,28.05
2018-07-17T07:20:32.885Z,28.05
2018-07-17T07:20:58.379Z,28.14
2018-07-17T07:21:23.897Z,28.04
2018-07-17T07:21:49.388Z,28.05
2018-07-17T07:22:14.913Z,28.05
2018-07-17T07:22:40.392Z,28.17
2018-07-17T07:23:05.873Z,28.17
2018-07-17T07:23:31.423Z,28.12
2018-07-17T07:23:56.961Z,28.17
2018-07-17T07:24:22.508Z,28.3
2018-07-17T07:24:48.008Z,28.22
2018-07-17T07:25:13.533Z,28.29
2018-07-17T07:25:39.043Z,28.37
2018-07-17T07:26:04.539Z,28.38
2018-07-17T07:26:30.030Z,28.32
2018-07-17T07:26:55.543Z,28.35
2018-07-17T07:27:21.024Z,28.42
2018-07-17T07:27:46.557Z,28.47
2018-07-17T07:28:12.110Z,28.54
2018-07-17T07:28:37.708Z,28.45
2018-07-17T07:29:03.217Z,28.56
2018-07-17T07:29:28.728Z,28.64
2018-07-17T07:29:54.190Z,28.69
2018-07-17T07:30:19.688Z,28.75
2018-07-17T07:30:45.210Z,28.76
2018-07-17T07:31:10.700Z,28.79
2018-07-17T07:31:36.210Z,28.82
2018-07-17T07:32:01.709Z,28.72
2018-07-17T07:32:27.227Z,28.89
2018-07-17T07:32:52.721Z,28.74
2018-07-17T07:33:18.256Z,28.74
2018-07-17T07:33:43.737Z,28.79
2018-07-17T07:34:09.238Z,28.86
2018-07-17T07:34:34.762Z,28.84
2018-07-17T07:35:00.236Z,28.85
2018-07-17T07:35:25.743Z,28.86
2018-07-17T07:35:51.258Z,28.97
2018-07-17T07:36:16.742Z,28.98
2018-07-17T07:36:42.225Z,29.04
2018-07-17T07:37:07.736Z,29.04
2018-07-17T07:37:33.251Z,29.12
2018-07-17T07:37:58.763Z,29.13
2018-07-17T07:38:24.282Z,29.13
2018-07-17T07:38:49.825Z,29.14
2018-07-17T07:39:15.329Z,29.19
2018-07-17T07:39:40.826Z,29.2
2018-07-17T07:40:06.324Z,29.26
2018-07-17T07:40:31.824Z,29.22
2018-07-17T07:40:57.306Z,29.17
2018-07-17T07:41:22.800Z,29.29
2018-07-17T07:41:48.267Z,29.38
2018-07-17T07:42:13.807Z,29.31
2018-07-17T07:42:39.308Z,29.35
2018-07-17T07:43:04.812Z,29.41
2018-07-17T07:43:30.288Z,29.38
2018-07-17T07:43:55.763Z,29.41
2018-07-17T07:44:21.316Z,29.44
2018-07-17T07:44:46.809Z,29.44
2018-07-17T07:45:40.283Z,29.5
2018-07-17T07:46:05.780Z,29.54
2018-07-17T07:46:31.304Z,29.5
2018-07-17T07:46:56.802Z,29.51
2018-07-17T07:47:22.275Z,29.56
2018-07-17T07:47:47.809Z,29.57
2018-07-17T07:48:13.319Z,29.6
2018-07-17T07:48:38.824Z,29.6
2018-07-17T07:49:04.294Z,29.66
2018-07-17T07:49:29.782Z,29.6
2018-07-17T07:49:55.260Z,29.68
2018-07-17T07:50:20.757Z,29.66
2018-07-17T07:50:46.254Z,29.78
2018-07-17T07:51:11.753Z,29.68
2018-07-17T07:51:37.216Z,29.68
2018-07-17T07:52:02.683Z,29.82
2018-07-17T07:52:28.181Z,29.79
2018-07-17T07:52:53.701Z,29.78
2018-07-17T07:53:19.182Z,29.82
2018-07-17T07:53:44.697Z,29.91
2018-07-17T07:54:10.211Z,29.86
2018-07-17T07:54:35.723Z,29.84
2018-07-17T07:55:01.224Z,29.9
2018-07-17T07:55:26.757Z,29.82
2018-07-17T07:55:52.252Z,29.87
2018-07-17T07:56:17.729Z,29.76
2018-07-17T07:56:43.236Z,29.78
2018-07-17T07:57:08.704Z,29.76
2018-07-17T07:57:34.221Z,29.82
2018-07-17T07:57:59.692Z,29.88
2018-07-17T07:58:25.208Z,29.75
2018-07-17T07:58:50.718Z,29.78
2018-07-17T07:59:16.244Z,29.79
2018-07-17T07:59:41.755Z,29.76
2018-07-17T08:00:07.255Z,29.88
2018-07-17T08:00:32.759Z,29.88
2018-07-17T08:00:58.248Z,29.98
2018-07-17T08:01:23.720Z,29.93
2018-07-17T08:01:49.214Z,29.95
2018-07-17T08:02:14.706Z,29.91
2018-07-17T08:02:40.215Z,29.86
2018-07-17T08:03:05.712Z,29.82
2018-07-17T08:03:31.243Z,29.82
2018-07-17T08:03:56.726Z,29.87
2018-07-17T08:04:22.208Z,29.91
2018-07-17T08:04:47.688Z,29.91
2018-07-17T08:05:13.219Z,29.97
2018-07-17T08:05:38.688Z,30.09
2018-07-17T08:06:04.203Z,29.94
2018-07-17T08:06:29.665Z,29.97
2018-07-17T08:06:55.136Z,30.05
2018-07-17T08:07:20.632Z,30.05
2018-07-17T08:07:46.126Z,29.98
2018-07-17T08:08:11.629Z,29.94
2018-07-17T08:08:37.176Z,30.06
2018-07-17T08:09:02.655Z,30
2018-07-17T08:09:28.156Z,30
2018-07-17T08:09:53.660Z,29.91
2018-07-17T08:10:42.188Z,30.02
2018-07-17T08:11:07.687Z,30.02
2018-07-17T08:11:33.204Z,30.03
2018-07-17T08:11:58.748Z,30.1
2018-07-17T08:12:24.197Z,30.06
2018-07-17T08:12:49.707Z,30.09
2018-07-17T08:13:15.187Z,30.1
2018-07-17T08:13:40.681Z,30.15
2018-07-17T08:14:06.183Z,30.15
2018-07-17T08:14:31.708Z,30.12
2018-07-17T08:14:57.224Z,30.13
2018-07-17T08:15:22.692Z,30.1
2018-07-17T08:15:48.172Z,30.05
2018-07-17T08:16:13.644Z,30.1
2018-07-17T08:16:39.143Z,30.06
2018-07-17T08:17:04.651Z,30.03
2018-07-17T08:17:30.155Z,30.06
2018-07-17T08:17:55.643Z,30.05
2018-07-17T08:18:21.141Z,30.05
2018-07-17T08:18:46.634Z,30.05
2018-07-17T08:19:12.137Z,30.08
2018-07-17T08:19:37.607Z,30.13
2018-07-17T08:20:03.113Z,30.13
2018-07-17T08:20:28.613Z,30.18
2018-07-17T08:20:54.108Z,30.21
2018-07-17T08:21:19.591Z,30.21
2018-07-17T08:21:45.084Z,30.24
2018-07-17T08:22:10.608Z,30.24
2018-07-17T08:22:36.088Z,30.25
2018-07-17T08:23:01.553Z,30.28
2018-07-17T08:23:27.058Z,30.24
2018-07-17T08:23:52.543Z,30.28
2018-07-17T08:24:18.047Z,30.28
2018-07-17T08:24:43.561Z,30.27
2018-07-17T08:25:09.056Z,30.3
2018-07-17T08:25:34.533Z,30.23
2018-07-17T08:26:00.039Z,30.4
2018-07-17T08:26:25.513Z,30.35
2018-07-17T08:26:50.983Z,30.4
2018-07-17T08:27:16.472Z,30.44
2018-07-17T08:27:41.989Z,30.37
2018-07-17T08:28:07.504Z,30.44
2018-07-17T08:28:33.014Z,30.5
2018-07-17T08:28:58.498Z,30.51
2018-07-17T08:29:24.001Z,30.63
2018-07-17T08:29:49.552Z,30.63
2018-07-17T08:30:14.992Z,30.63
2018-07-17T08:30:40.507Z,30.66
2018-07-17T08:31:06.006Z,30.63
2018-07-17T08:31:31.523Z,30.75
2018-07-17T08:31:57.021Z,30.69
2018-07-17T08:32:22.497Z,30.8
2018-07-17T08:32:48.006Z,30.8
2018-07-17T08:33:13.523Z,30.83
2018-07-17T08:33:39.033Z,30.84
2018-07-17T08:34:04.536Z,30.9
2018-07-17T08:34:30.031Z,30.92
2018-07-17T08:34:55.506Z,31.03
2018-07-17T08:35:21.020Z,30.97
2018-07-17T08:35:46.511Z,30.94
2018-07-17T08:36:11.987Z,30.96
2018-07-17T08:36:37.480Z,30.92
2018-07-17T08:37:02.973Z,30.91
2018-07-17T08:37:28.480Z,31.02
2018-07-17T08:37:53.967Z,31
2018-07-17T08:38:19.457Z,30.97
2018-07-17T08:38:44.963Z,30.97
2018-07-17T08:39:10.446Z,30.96
2018-07-17T08:39:35.953Z,31.03
2018-07-17T08:40:01.462Z,31
2018-07-17T08:40:26.959Z,31
2018-07-17T08:40:52.452Z,31.1
2018-07-17T08:41:17.991Z,31.05
2018-07-17T08:41:43.463Z,31
2018-07-17T08:42:08.970Z,31.1
2018-07-17T08:42:34.454Z,31.06
2018-07-17T08:42:59.954Z,31.12
2018-07-17T08:43:25.510Z,31.05
2018-07-17T08:43:50.940Z,31.14
2018-07-17T08:44:16.442Z,31.15
2018-07-17T08:44:41.954Z,31.06
2018-07-17T08:45:07.439Z,31.1
2018-07-17T08:45:32.924Z,31.1
2018-07-17T08:45:58.391Z,31.02
2018-07-17T08:46:23.916Z,31.2
2018-07-17T08:46:49.386Z,31.1
2018-07-17T08:47:14.864Z,31.12
2018-07-17T08:47:40.343Z,31.18
2018-07-17T08:48:05.848Z,31.15
2018-07-17T08:48:31.339Z,31.27
2018-07-17T08:48:56.862Z,31.15
2018-07-17T08:49:22.374Z,31.31
2018-07-17T08:49:47.895Z,31.14
2018-07-17T08:50:13.408Z,31.31
2018-07-17T08:50:38.896Z,31.31
2018-07-17T08:51:04.360Z,31.24
2018-07-17T08:51:29.881Z,31.37
2018-07-17T08:51:55.442Z,31.37
2018-07-17T08:52:20.932Z,31.34
2018-07-17T08:52:46.419Z,31.37
2018-07-17T08:53:11.928Z,31.49
2018-07-17T08:53:37.416Z,31.42
2018-07-17T08:54:02.947Z,31.58
2018-07-17T08:54:28.521Z,31.54
2018-07-17T08:54:53.943Z,31.59
2018-07-17T08:55:47.363Z,31.61
2018-07-17T08:56:12.898Z,31.65
2018-07-17T08:56:38.388Z,31.74
2018-07-17T08:57:03.881Z,31.73
2018-07-17T08:57:29.366Z,31.84
2018-07-17T08:57:54.892Z,31.8
2018-07-17T08:58:20.368Z,31.84
2018-07-17T08:59:08.706Z,31.89
2018-07-17T08:59:34.199Z,31.89
2018-07-17T08:59:59.701Z,31.93
2018-07-17T09:00:25.294Z,31.99
2018-07-17T09:00:50.709Z,31.99
2018-07-17T09:01:16.196Z,31.93
2018-07-17T09:01:41.701Z,32
2018-07-17T09:02:07.201Z,31.97
2018-07-17T09:02:32.708Z,31.96
2018-07-17T09:02:58.200Z,32.01
2018-07-17T09:03:23.736Z,31.99
2018-07-17T09:03:49.362Z,31.99
2018-07-17T09:04:14.811Z,31.99
2018-07-17T09:04:40.290Z,31.99
2018-07-17T09:05:05.774Z,31.96
2018-07-17T09:05:31.257Z,31.94
2018-07-17T09:05:56.834Z,31.97
2018-07-17T09:06:22.245Z,31.92
2018-07-17T09:07:30.987Z,31.85
2018-07-17T09:07:56.457Z,31.94
2018-07-17T09:08:21.992Z,31.81
2018-07-17T09:08:47.474Z,31.92
2018-07-17T09:09:12.983Z,31.9
2018-07-17T09:09:38.450Z,31.94
2018-07-17T09:10:03.942Z,31.94
2018-07-17T09:10:29.442Z,31.93
2018-07-17T09:10:54.963Z,32.07
2018-07-17T09:11:20.442Z,31.94
2018-07-17T09:11:45.959Z,32.01
2018-07-17T09:12:11.469Z,31.97
2018-07-17T09:12:36.934Z,32.08
2018-07-17T09:13:02.473Z,31.99
2018-07-17T09:13:27.952Z,32.07
2018-07-17T09:13:53.449Z,32.09
2018-07-17T09:14:18.960Z,32.08
2018-07-17T09:14:44.449Z,32.01
2018-07-17T09:15:09.939Z,32.04
2018-07-17T09:15:35.454Z,32.03
2018-07-17T09:16:00.967Z,32.04
2018-07-17T09:16:26.507Z,32.09
2018-07-17T09:16:52.013Z,32.18
2018-07-17T09:17:17.513Z,32.15
2018-07-17T09:17:42.984Z,32.15
2018-07-17T09:18:08.487Z,32.15
2018-07-17T09:18:56.817Z,32.18
2018-07-17T09:19:22.308Z,32.12
2018-07-17T09:19:47.816Z,32.22
2018-07-17T09:20:13.319Z,32.15
2018-07-17T09:20:38.824Z,32.15
2018-07-17T09:21:04.335Z,32.29
2018-07-17T09:21:29.872Z,32.22
2018-07-17T09:21:55.324Z,32.3
2018-07-17T09:22:20.813Z,32.29
2018-07-17T09:22:46.339Z,32.26
2018-07-17T09:23:11.833Z,32.26
2018-07-17T09:23:37.324Z,32.26
2018-07-17T09:24:02.820Z,32.29
2018-07-17T09:24:28.347Z,32.33
2018-07-17T09:24:53.842Z,32.33
2018-07-17T09:25:19.355Z,32.36
2018-07-17T09:25:44.861Z,32.37
2018-07-17T09:26:10.362Z,32.38
2018-07-17T09:26:35.918Z,32.34
2018-07-17T09:27:01.453Z,32.38
2018-07-17T09:27:26.924Z,32.29
2018-07-17T09:27:52.428Z,32.38
2018-07-17T09:28:17.895Z,32.43
2018-07-17T09:28:43.403Z,32.41
2018-07-17T09:29:08.925Z,32.37
2018-07-17T09:29:34.459Z,32.41
2018-07-17T09:29:59.934Z,32.4
2018-07-17T09:30:25.483Z,32.45
2018-07-17T09:30:50.992Z,32.41
2018-07-17T09:31:16.495Z,32.46
2018-07-17T09:31:42.037Z,32.43
2018-07-17T09:32:07.517Z,32.41
2018-07-17T09:32:33.111Z,32.45
2018-07-17T09:32:58.611Z,32.41
2018-07-17T09:33:24.119Z,32.41
2018-07-17T09:33:49.627Z,32.45
2018-07-17T09:34:15.116Z,32.43
2018-07-17T09:34:40.631Z,32.51
2018-07-17T09:35:06.105Z,32.4
2018-07-17T09:36:14.798Z,32.49
2018-07-17T09:36:40.316Z,32.52
2018-07-17T09:37:05.808Z,32.55
2018-07-17T09:37:31.272Z,32.51
2018-07-17T09:37:56.750Z,32.49
2018-07-17T09:38:22.268Z,32.49
2018-07-17T09:38:47.764Z,32.52
2018-07-17T09:39:13.312Z,32.52
2018-07-17T09:39:38.837Z,32.43
2018-07-17T09:40:04.338Z,32.41
2018-07-17T09:40:29.856Z,32.4
2018-07-17T09:40:55.355Z,32.46
2018-07-17T09:41:20.900Z,32.46
2018-07-17T09:41:46.379Z,32.4
2018-07-17T09:42:11.886Z,32.38
2018-07-17T09:42:37.390Z,32.52
2018-07-17T09:43:02.932Z,32.53
2018-07-17T09:43:28.431Z,32.63
2018-07-17T09:43:53.951Z,32.55
2018-07-17T09:44:19.524Z,32.59
2018-07-17T09:44:44.921Z,32.58
2018-07-17T09:45:10.438Z,32.53
2018-07-17T09:45:35.898Z,32.53
2018-07-17T09:46:29.358Z,32.58
2018-07-17T09:46:54.863Z,32.59
2018-07-17T09:47:20.351Z,32.53
2018-07-17T09:47:45.892Z,32.59
2018-07-17T09:48:11.344Z,32.65
2018-07-17T09:48:36.860Z,32.64
2018-07-17T09:49:02.361Z,32.63
2018-07-17T09:49:27.882Z,32.6
2018-07-17T09:49:53.398Z,32.64
2018-07-17T09:50:18.907Z,32.67
2018-07-17T09:50:44.423Z,32.7